sensor_id;sensor_type;location;lat;lon;timestamp;P1;durP1;ratioP1;P2;durP2;ratioP2
32746;SDS011;19118;50.860;13.662;2023-01-24T00:04:22;802.47;;;71.68;;
32746;SDS011;19118;50.860;13.662;2023-01-24T00:09:23;1241.00;;;93.43;;
32746;SDS011;19118;50.860;13.662;2023-01-24T00:14:23;1330.65;;;98.90;;
32746;SDS011;19118;50.860;13.662;2023-01-24T00:19:23;1061.22;;;80.22;;
32746;SDS011;19118;50.860;13.662;2023-01-24T00:24:23;1001.40;;;87.50;;
32746;SDS011;19118;50.860;13.662;2023-01-24T00:29:26;963.80;;;79.45;;
32746;SDS011;19118;50.860;13.662;2023-01-24T00:34:26;995.60;;;85.18;;
32746;SDS011;19118;50.860;13.662;2023-01-24T00:39:27;1114.57;;;92.90;;
32746;SDS011;19118;50.860;13.662;2023-01-24T00:44:27;701.83;;;66.40;;
32746;SDS011;19118;50.860;13.662;2023-01-24T00:49:28;1007.28;;;81.55;;
32746;SDS011;19118;50.860;13.662;2023-01-24T00:54:28;779.53;;;71.28;;
32746;SDS011;19118;50.860;13.662;2023-01-24T00:59:29;556.45;;;62.28;;
32746;SDS011;19118;50.860;13.662;2023-01-24T01:04:29;884.72;;;83.82;;
32746;SDS011;19118;50.860;13.662;2023-01-24T01:09:30;967.75;;;85.22;;
32746;SDS011;19118;50.860;13.662;2023-01-24T01:14:30;893.33;;;80.22;;
32746;SDS011;19118;50.860;13.662;2023-01-24T01:19:30;749.40;;;68.82;;
32746;SDS011;19118;50.860;13.662;2023-01-24T01:24:30;610.97;;;66.32;;
32746;SDS011;19118;50.860;13.662;2023-01-24T01:29:32;829.88;;;78.75;;
32746;SDS011;19118;50.860;13.662;2023-01-24T01:34:33;847.58;;;77.93;;
32746;SDS011;19118;50.860;13.662;2023-01-24T01:39:33;1067.95;;;90.55;;
32746;SDS011;19118;50.860;13.662;2023-01-24T01:44:34;1091.43;;;89.63;;
32746;SDS011;19118;50.860;13.662;2023-01-24T01:49:42;1088.25;;;96.05;;
32746;SDS011;19118;50.860;13.662;2023-01-24T01:54:50;996.45;;;88.50;;
32746;SDS011;19118;50.860;13.662;2023-01-24T02:05:00;1221.40;;;104.82;;
32746;SDS011;19118;50.860;13.662;2023-01-24T02:10:03;910.70;;;80.80;;
32746;SDS011;19118;50.860;13.662;2023-01-24T02:15:06;822.22;;;80.22;;
32746;SDS011;19118;50.860;13.662;2023-01-24T02:25:42;1135.97;;;97.47;;
32746;SDS011;19118;50.860;13.662;2023-01-24T02:30:57;1238.93;;;95.88;;
32746;SDS011;19118;50.860;13.662;2023-01-24T02:36:09;1233.65;;;102.35;;
32746;SDS011;19118;50.860;13.662;2023-01-24T02:41:13;810.10;;;71.35;;
32746;SDS011;19118;50.860;13.662;2023-01-24T02:46:15;1112.78;;;94.30;;
32746;SDS011;19118;50.860;13.662;2023-01-24T02:51:16;1239.93;;;96.32;;
32746;SDS011;19118;50.860;13.662;2023-01-24T02:56:34;802.73;;;78.53;;
32746;SDS011;19118;50.860;13.662;2023-01-24T03:01:54;1029.95;;;91.35;;
32746;SDS011;19118;50.860;13.662;2023-01-24T03:06:54;768.53;;;78.47;;
32746;SDS011;19118;50.860;13.662;2023-01-24T03:11:55;993.78;;;89.72;;
32746;SDS011;19118;50.860;13.662;2023-01-24T03:17:14;733.45;;;75.00;;
32746;SDS011;19118;50.860;13.662;2023-01-24T03:22:33;614.53;;;60.43;;
32746;SDS011;19118;50.860;13.662;2023-01-24T03:27:52;1104.60;;;91.67;;
32746;SDS011;19118;50.860;13.662;2023-01-24T03:33:11;1050.33;;;86.73;;
32746;SDS011;19118;50.860;13.662;2023-01-24T03:48:53;1318.30;;;99.97;;
32746;SDS011;19118;50.860;13.662;2023-01-24T03:54:00;1144.05;;;99.78;;
32746;SDS011;19118;50.860;13.662;2023-01-24T03:59:09;1287.13;;;103.22;;
32746;SDS011;19118;50.860;13.662;2023-01-24T04:04:12;1316.38;;;101.93;;
32746;SDS011;19118;50.860;13.662;2023-01-24T04:09:12;858.45;;;77.13;;
32746;SDS011;19118;50.860;13.662;2023-01-24T04:14:15;1188.68;;;98.43;;
32746;SDS011;19118;50.860;13.662;2023-01-24T04:19:33;1194.60;;;95.72;;
32746;SDS011;19118;50.860;13.662;2023-01-24T04:24:33;1237.50;;;102.85;;
32746;SDS011;19118;50.860;13.662;2023-01-24T04:29:34;1390.20;;;106.90;;
32746;SDS011;19118;50.860;13.662;2023-01-24T04:34:38;1530.93;;;110.25;;
32746;SDS011;19118;50.860;13.662;2023-01-24T04:39:42;899.83;;;80.28;;
32746;SDS011;19118;50.860;13.662;2023-01-24T04:44:49;1431.60;;;111.03;;
32746;SDS011;19118;50.860;13.662;2023-01-24T04:49:50;1505.63;;;106.95;;
32746;SDS011;19118;50.860;13.662;2023-01-24T04:54:52;1481.43;;;113.63;;
32746;SDS011;19118;50.860;13.662;2023-01-24T04:59:53;872.55;;;71.88;;
32746;SDS011;19118;50.860;13.662;2023-01-24T05:04:54;1236.45;;;82.47;;
32746;SDS011;19118;50.860;13.662;2023-01-24T05:09:54;1298.05;;;94.82;;
32746;SDS011;19118;50.860;13.662;2023-01-24T05:14:56;1409.25;;;101.72;;
32746;SDS011;19118;50.860;13.662;2023-01-24T05:19:58;1308.35;;;92.40;;
32746;SDS011;19118;50.860;13.662;2023-01-24T05:24:59;1637.20;;;104.55;;
32746;SDS011;19118;50.860;13.662;2023-01-24T05:29:59;1421.57;;;100.50;;
32746;SDS011;19118;50.860;13.662;2023-01-24T05:35:00;1335.45;;;95.85;;
32746;SDS011;19118;50.860;13.662;2023-01-24T05:40:01;1540.72;;;111.05;;
32746;SDS011;19118;50.860;13.662;2023-01-24T05:45:01;1260.65;;;84.90;;
32746;SDS011;19118;50.860;13.662;2023-01-24T05:50:02;856.42;;;70.13;;
32746;SDS011;19118;50.860;13.662;2023-01-24T05:55:03;1342.60;;;97.55;;
32746;SDS011;19118;50.860;13.662;2023-01-24T06:00:09;1320.18;;;96.68;;
32746;SDS011;19118;50.860;13.662;2023-01-24T06:05:14;775.58;;;73.93;;
32746;SDS011;19118;50.860;13.662;2023-01-24T06:10:15;1304.32;;;90.82;;
32746;SDS011;19118;50.860;13.662;2023-01-24T06:15:25;1011.40;;;74.05;;
32746;SDS011;19118;50.860;13.662;2023-01-24T06:20:26;1002.83;;;73.80;;
32746;SDS011;19118;50.860;13.662;2023-01-24T06:25:27;719.13;;;60.85;;
32746;SDS011;19118;50.860;13.662;2023-01-24T06:30:27;950.63;;;80.15;;
32746;SDS011;19118;50.860;13.662;2023-01-24T06:40:34;1018.33;;;83.15;;
32746;SDS011;19118;50.860;13.662;2023-01-24T06:45:34;1045.75;;;89.78;;
32746;SDS011;19118;50.860;13.662;2023-01-24T06:50:35;976.97;;;81.97;;
32746;SDS011;19118;50.860;13.662;2023-01-24T06:55:35;820.17;;;70.15;;
32746;SDS011;19118;50.860;13.662;2023-01-24T07:00:35;918.35;;;76.40;;
32746;SDS011;19118;50.860;13.662;2023-01-24T07:05:37;968.22;;;81.45;;
32746;SDS011;19118;50.860;13.662;2023-01-24T07:10:38;780.47;;;68.47;;
32746;SDS011;19118;50.860;13.662;2023-01-24T07:15:39;874.45;;;69.38;;
32746;SDS011;19118;50.860;13.662;2023-01-24T07:20:40;859.92;;;66.93;;
32746;SDS011;19118;50.860;13.662;2023-01-24T07:25:41;1033.10;;;88.53;;
32746;SDS011;19118;50.860;13.662;2023-01-24T07:30:42;857.17;;;71.78;;
32746;SDS011;19118;50.860;13.662;2023-01-24T07:35:45;942.00;;;73.35;;
32746;SDS011;19118;50.860;13.662;2023-01-24T07:40:45;966.55;;;75.40;;
32746;SDS011;19118;50.860;13.662;2023-01-24T07:45:46;782.03;;;72.05;;
32746;SDS011;19118;50.860;13.662;2023-01-24T07:50:46;553.25;;;54.45;;
32746;SDS011;19118;50.860;13.662;2023-01-24T07:55:46;897.38;;;82.10;;
32746;SDS011;19118;50.860;13.662;2023-01-24T08:00:47;891.77;;;73.20;;
32746;SDS011;19118;50.860;13.662;2023-01-24T08:05:47;646.85;;;64.05;;
32746;SDS011;19118;50.860;13.662;2023-01-24T08:10:47;701.37;;;64.43;;
32746;SDS011;19118;50.860;13.662;2023-01-24T08:15:48;764.83;;;68.53;;
32746;SDS011;19118;50.860;13.662;2023-01-24T08:20:48;529.50;;;54.53;;
32746;SDS011;19118;50.860;13.662;2023-01-24T08:25:49;610.53;;;61.45;;
32746;SDS011;19118;50.860;13.662;2023-01-24T08:30:49;451.98;;;52.58;;
32746;SDS011;19118;50.860;13.662;2023-01-24T08:35:50;764.28;;;63.45;;
32746;SDS011;19118;50.860;13.662;2023-01-24T08:40:50;397.67;;;49.67;;
32746;SDS011;19118;50.860;13.662;2023-01-24T08:45:53;819.83;;;67.10;;
32746;SDS011;19118;50.860;13.662;2023-01-24T08:50:55;768.40;;;61.78;;
32746;SDS011;19118;50.860;13.662;2023-01-24T08:55:55;1154.20;;;80.25;;
32746;SDS011;19118;50.860;13.662;2023-01-24T09:00:56;1053.05;;;123.82;;
32746;SDS011;19118;50.860;13.662;2023-01-24T09:05:56;622.78;;;60.55;;
32746;SDS011;19118;50.860;13.662;2023-01-24T09:11:00;1157.40;;;128.55;;
32746;SDS011;19118;50.860;13.662;2023-01-24T09:16:01;903.25;;;80.32;;
32746;SDS011;19118;50.860;13.662;2023-01-24T09:21:01;705.95;;;62.63;;
32746;SDS011;19118;50.860;13.662;2023-01-24T09:26:03;512.95;;;66.65;;
32746;SDS011;19118;50.860;13.662;2023-01-24T09:31:06;987.13;;;68.60;;
32746;SDS011;19118;50.860;13.662;2023-01-24T09:36:07;717.65;;;54.28;;
32746;SDS011;19118;50.860;13.662;2023-01-24T09:46:26;669.80;;;53.97;;
32746;SDS011;19118;50.860;13.662;2023-01-24T09:51:33;537.47;;;50.45;;
32746;SDS011;19118;50.860;13.662;2023-01-24T09:56:41;541.67;;;51.08;;
32746;SDS011;19118;50.860;13.662;2023-01-24T10:01:44;470.90;;;43.10;;
32746;SDS011;19118;50.860;13.662;2023-01-24T10:18:06;648.35;;;51.80;;
32746;SDS011;19118;50.860;13.662;2023-01-24T10:23:33;750.22;;;53.78;;
32746;SDS011;19118;50.860;13.662;2023-01-24T10:28:39;432.52;;;37.65;;
32746;SDS011;19118;50.860;13.662;2023-01-24T10:33:44;781.90;;;55.58;;
32746;SDS011;19118;50.860;13.662;2023-01-24T10:52:33;849.75;;;64.35;;
32746;SDS011;19118;50.860;13.662;2023-01-24T10:57:38;947.15;;;64.68;;
32746;SDS011;19118;50.860;13.662;2023-01-24T11:02:41;951.80;;;71.68;;
32746;SDS011;19118;50.860;13.662;2023-01-24T11:07:50;886.10;;;69.65;;
32746;SDS011;19118;50.860;13.662;2023-01-24T11:12:56;737.78;;;57.53;;
32746;SDS011;19118;50.860;13.662;2023-01-24T11:23:08;410.70;;;41.10;;
32746;SDS011;19118;50.860;13.662;2023-01-24T11:28:21;633.42;;;53.00;;
32746;SDS011;19118;50.860;13.662;2023-01-24T11:38:45;463.17;;;45.00;;
32746;SDS011;19118;50.860;13.662;2023-01-24T11:54:46;389.77;;;41.55;;
32746;SDS011;19118;50.860;13.662;2023-01-24T12:00:20;898.90;;;66.53;;
32746;SDS011;19118;50.860;13.662;2023-01-24T12:16:44;703.22;;;55.83;;
32746;SDS011;19118;50.860;13.662;2023-01-24T12:22:15;969.88;;;69.65;;
32746;SDS011;19118;50.860;13.662;2023-01-24T12:27:21;736.28;;;62.05;;
32746;SDS011;19118;50.860;13.662;2023-01-24T12:32:26;765.33;;;80.18;;
32746;SDS011;19118;50.860;13.662;2023-01-24T12:37:35;740.58;;;60.17;;
32746;SDS011;19118;50.860;13.662;2023-01-24T12:42:47;208.88;;;39.83;;
32746;SDS011;19118;50.860;13.662;2023-01-24T12:47:57;408.25;;;46.95;;
32746;SDS011;19118;50.860;13.662;2023-01-24T12:53:09;416.92;;;42.83;;
32746;SDS011;19118;50.860;13.662;2023-01-24T12:58:18;518.63;;;50.90;;
32746;SDS011;19118;50.860;13.662;2023-01-24T13:14:17;657.40;;;61.90;;
32746;SDS011;19118;50.860;13.662;2023-01-24T13:19:26;422.08;;;47.25;;
32746;SDS011;19118;50.860;13.662;2023-01-24T13:25:05;752.70;;;60.22;;
32746;SDS011;19118;50.860;13.662;2023-01-24T13:30:21;698.33;;;58.95;;
32746;SDS011;19118;50.860;13.662;2023-01-24T13:35:47;268.35;;;42.03;;
32746;SDS011;19118;50.860;13.662;2023-01-24T13:40:56;172.03;;;38.27;;
32746;SDS011;19118;50.860;13.662;2023-01-24T13:45:59;131.38;;;33.17;;
32746;SDS011;19118;50.860;13.662;2023-01-24T13:57:08;118.57;;;34.83;;
32746;SDS011;19118;50.860;13.662;2023-01-24T14:02:27;205.75;;;33.33;;
32746;SDS011;19118;50.860;13.662;2023-01-24T14:07:37;102.45;;;30.83;;
32746;SDS011;19118;50.860;13.662;2023-01-24T14:12:39;90.93;;;30.33;;
32746;SDS011;19118;50.860;13.662;2023-01-24T14:17:53;98.97;;;30.77;;
32746;SDS011;19118;50.860;13.662;2023-01-24T14:22:54;80.28;;;24.77;;
32746;SDS011;19118;50.860;13.662;2023-01-24T14:27:58;80.25;;;26.67;;
32746;SDS011;19118;50.860;13.662;2023-01-24T14:33:04;78.90;;;27.45;;
32746;SDS011;19118;50.860;13.662;2023-01-24T14:38:30;97.10;;;28.42;;
32746;SDS011;19118;50.860;13.662;2023-01-24T14:43:33;103.15;;;30.80;;
32746;SDS011;19118;50.860;13.662;2023-01-24T14:48:36;117.32;;;31.60;;
32746;SDS011;19118;50.860;13.662;2023-01-24T14:53:36;96.82;;;28.48;;
32746;SDS011;19118;50.860;13.662;2023-01-24T14:58:37;94.03;;;30.67;;
32746;SDS011;19118;50.860;13.662;2023-01-24T15:03:37;103.38;;;31.08;;
32746;SDS011;19118;50.860;13.662;2023-01-24T15:08:38;97.45;;;30.98;;
32746;SDS011;19118;50.860;13.662;2023-01-24T15:13:41;122.05;;;32.00;;
32746;SDS011;19118;50.860;13.662;2023-01-24T15:18:45;108.78;;;31.90;;
32746;SDS011;19118;50.860;13.662;2023-01-24T15:23:49;103.38;;;32.95;;
32746;SDS011;19118;50.860;13.662;2023-01-24T15:28:52;87.53;;;28.25;;
32746;SDS011;19118;50.860;13.662;2023-01-24T15:33:54;103.57;;;30.67;;
32746;SDS011;19118;50.860;13.662;2023-01-24T15:38:58;102.80;;;32.28;;
32746;SDS011;19118;50.860;13.662;2023-01-24T15:44:06;95.32;;;29.63;;
32746;SDS011;19118;50.860;13.662;2023-01-24T15:49:21;101.65;;;31.73;;
32746;SDS011;19118;50.860;13.662;2023-01-24T15:54:22;83.57;;;26.50;;
32746;SDS011;19118;50.860;13.662;2023-01-24T15:59:27;94.47;;;29.65;;
32746;SDS011;19118;50.860;13.662;2023-01-24T16:04:28;100.25;;;28.60;;
32746;SDS011;19118;50.860;13.662;2023-01-24T16:09:28;105.47;;;31.60;;
32746;SDS011;19118;50.860;13.662;2023-01-24T16:14:29;101.80;;;28.50;;
32746;SDS011;19118;50.860;13.662;2023-01-24T16:19:30;113.95;;;32.58;;
32746;SDS011;19118;50.860;13.662;2023-01-24T16:24:30;124.85;;;33.33;;
32746;SDS011;19118;50.860;13.662;2023-01-24T16:29:30;121.43;;;34.53;;
32746;SDS011;19118;50.860;13.662;2023-01-24T16:34:33;121.43;;;34.40;;
32746;SDS011;19118;50.860;13.662;2023-01-24T16:39:33;111.67;;;31.97;;
32746;SDS011;19118;50.860;13.662;2023-01-24T16:44:33;144.18;;;35.60;;
32746;SDS011;19118;50.860;13.662;2023-01-24T16:49:34;140.85;;;33.88;;
32746;SDS011;19118;50.860;13.662;2023-01-24T16:54:34;133.00;;;33.10;;
32746;SDS011;19118;50.860;13.662;2023-01-24T16:59:34;161.67;;;38.37;;
32746;SDS011;19118;50.860;13.662;2023-01-24T17:04:35;201.50;;;41.50;;
32746;SDS011;19118;50.860;13.662;2023-01-24T17:09:35;202.75;;;41.30;;
32746;SDS011;19118;50.860;13.662;2023-01-24T17:14:35;168.65;;;38.95;;
32746;SDS011;19118;50.860;13.662;2023-01-24T17:19:36;253.18;;;43.63;;
32746;SDS011;19118;50.860;13.662;2023-01-24T17:24:36;443.23;;;50.28;;
32746;SDS011;19118;50.860;13.662;2023-01-24T17:29:37;136.35;;;35.58;;
32746;SDS011;19118;50.860;13.662;2023-01-24T17:34:38;157.73;;;35.58;;
32746;SDS011;19118;50.860;13.662;2023-01-24T17:39:38;220.88;;;41.58;;
32746;SDS011;19118;50.860;13.662;2023-01-24T17:44:39;216.88;;;42.67;;
32746;SDS011;19118;50.860;13.662;2023-01-24T17:49:39;220.70;;;40.53;;
32746;SDS011;19118;50.860;13.662;2023-01-24T17:54:40;238.33;;;39.07;;
32746;SDS011;19118;50.860;13.662;2023-01-24T17:59:40;253.70;;;41.23;;
32746;SDS011;19118;50.860;13.662;2023-01-24T18:04:40;176.23;;;36.33;;
32746;SDS011;19118;50.860;13.662;2023-01-24T18:09:41;210.27;;;40.53;;
32746;SDS011;19118;50.860;13.662;2023-01-24T18:14:41;216.10;;;39.45;;
32746;SDS011;19118;50.860;13.662;2023-01-24T18:19:42;491.00;;;50.55;;
32746;SDS011;19118;50.860;13.662;2023-01-24T18:24:43;408.27;;;50.97;;
32746;SDS011;19118;50.860;13.662;2023-01-24T18:29:44;299.42;;;44.42;;
32746;SDS011;19118;50.860;13.662;2023-01-24T18:34:45;407.73;;;48.13;;
32746;SDS011;19118;50.860;13.662;2023-01-24T18:39:45;270.02;;;41.78;;
32746;SDS011;19118;50.860;13.662;2023-01-24T18:44:45;288.83;;;41.90;;
32746;SDS011;19118;50.860;13.662;2023-01-24T18:49:46;328.13;;;45.58;;
32746;SDS011;19118;50.860;13.662;2023-01-24T18:54:46;410.73;;;48.90;;
32746;SDS011;19118;50.860;13.662;2023-01-24T18:59:46;162.00;;;37.70;;
32746;SDS011;19118;50.860;13.662;2023-01-24T19:04:46;115.60;;;31.63;;
32746;SDS011;19118;50.860;13.662;2023-01-24T19:09:47;232.00;;;37.87;;
32746;SDS011;19118;50.860;13.662;2023-01-24T19:14:47;161.87;;;35.40;;
32746;SDS011;19118;50.860;13.662;2023-01-24T19:19:48;202.75;;;38.22;;
32746;SDS011;19118;50.860;13.662;2023-01-24T19:24:52;158.07;;;38.20;;
32746;SDS011;19118;50.860;13.662;2023-01-24T19:29:52;256.60;;;40.25;;
32746;SDS011;19118;50.860;13.662;2023-01-24T19:34:52;189.60;;;36.90;;
32746;SDS011;19118;50.860;13.662;2023-01-24T19:39:53;206.10;;;37.75;;
32746;SDS011;19118;50.860;13.662;2023-01-24T19:44:53;151.25;;;35.88;;
32746;SDS011;19118;50.860;13.662;2023-01-24T19:49:53;139.33;;;34.60;;
32746;SDS011;19118;50.860;13.662;2023-01-24T19:54:54;100.60;;;30.83;;
32746;SDS011;19118;50.860;13.662;2023-01-24T19:59:54;93.43;;;26.73;;
32746;SDS011;19118;50.860;13.662;2023-01-24T20:04:54;96.67;;;29.17;;
32746;SDS011;19118;50.860;13.662;2023-01-24T20:09:55;129.75;;;32.35;;
32746;SDS011;19118;50.860;13.662;2023-01-24T20:14:55;155.52;;;33.58;;
32746;SDS011;19118;50.860;13.662;2023-01-24T20:19:55;174.60;;;34.63;;
32746;SDS011;19118;50.860;13.662;2023-01-24T20:24:56;125.47;;;31.20;;
32746;SDS011;19118;50.860;13.662;2023-01-24T20:29:56;96.85;;;28.42;;
32746;SDS011;19118;50.860;13.662;2023-01-24T20:34:57;130.05;;;30.98;;
32746;SDS011;19118;50.860;13.662;2023-01-24T20:39:57;115.20;;;29.43;;
32746;SDS011;19118;50.860;13.662;2023-01-24T20:44:58;77.80;;;21.90;;
32746;SDS011;19118;50.860;13.662;2023-01-24T20:49:58;60.30;;;20.63;;
32746;SDS011;19118;50.860;13.662;2023-01-24T20:54:58;79.80;;;24.27;;
32746;SDS011;19118;50.860;13.662;2023-01-24T20:59:59;79.93;;;24.27;;
32746;SDS011;19118;50.860;13.662;2023-01-24T21:04:59;77.65;;;23.63;;
32746;SDS011;19118;50.860;13.662;2023-01-24T21:09:59;79.57;;;24.27;;
32746;SDS011;19118;50.860;13.662;2023-01-24T21:15:00;86.23;;;25.93;;
32746;SDS011;19118;50.860;13.662;2023-01-24T21:20:00;86.43;;;26.38;;
32746;SDS011;19118;50.860;13.662;2023-01-24T21:25:00;122.53;;;30.60;;
32746;SDS011;19118;50.860;13.662;2023-01-24T21:30:01;123.55;;;28.08;;
32746;SDS011;19118;50.860;13.662;2023-01-24T21:35:01;111.03;;;30.27;;
32746;SDS011;19118;50.860;13.662;2023-01-24T21:40:02;111.88;;;30.02;;
32746;SDS011;19118;50.860;13.662;2023-01-24T21:45:03;208.45;;;38.40;;
32746;SDS011;19118;50.860;13.662;2023-01-24T21:50:04;123.60;;;32.85;;
32746;SDS011;19118;50.860;13.662;2023-01-24T21:55:04;136.88;;;35.45;;
32746;SDS011;19118;50.860;13.662;2023-01-24T22:00:05;206.40;;;36.83;;
32746;SDS011;19118;50.860;13.662;2023-01-24T22:05:13;378.77;;;45.80;;
32746;SDS011;19118;50.860;13.662;2023-01-24T22:10:13;153.45;;;33.55;;
32746;SDS011;19118;50.860;13.662;2023-01-24T22:15:14;149.13;;;33.70;;
32746;SDS011;19118;50.860;13.662;2023-01-24T22:20:16;138.30;;;33.38;;
32746;SDS011;19118;50.860;13.662;2023-01-24T22:30:28;132.45;;;30.45;;
32746;SDS011;19118;50.860;13.662;2023-01-24T22:35:30;150.32;;;31.85;;
32746;SDS011;19118;50.860;13.662;2023-01-24T22:40:31;160.32;;;32.45;;
32746;SDS011;19118;50.860;13.662;2023-01-24T22:45:32;130.88;;;32.13;;
32746;SDS011;19118;50.860;13.662;2023-01-24T22:50:32;160.95;;;34.17;;
32746;SDS011;19118;50.860;13.662;2023-01-24T22:55:32;180.03;;;37.80;;
32746;SDS011;19118;50.860;13.662;2023-01-24T23:00:32;179.75;;;38.00;;
32746;SDS011;19118;50.860;13.662;2023-01-24T23:05:33;212.57;;;39.58;;
32746;SDS011;19118;50.860;13.662;2023-01-24T23:10:33;133.50;;;31.67;;
32746;SDS011;19118;50.860;13.662;2023-01-24T23:15:33;378.17;;;43.33;;
32746;SDS011;19118;50.860;13.662;2023-01-24T23:20:52;464.50;;;45.53;;
32746;SDS011;19118;50.860;13.662;2023-01-24T23:26:11;171.02;;;31.70;;
32746;SDS011;19118;50.860;13.662;2023-01-24T23:31:11;772.08;;;61.15;;
32746;SDS011;19118;50.860;13.662;2023-01-24T23:36:16;750.83;;;63.08;;
32746;SDS011;19118;50.860;13.662;2023-01-24T23:41:16;604.80;;;50.67;;
32746;SDS011;19118;50.860;13.662;2023-01-24T23:46:16;590.42;;;50.15;;
32746;SDS011;19118;50.860;13.662;2023-01-24T23:51:17;883.87;;;64.07;;
32746;SDS011;19118;50.860;13.662;2023-01-24T23:56:17;831.85;;;64.43;;
